createdAt,value
2022-08-26T00:02:20.498Z,61.40
2022-08-26T00:05:23.082Z,61.80
2022-08-26T00:08:25.379Z,61.80
2022-08-26T00:11:29.001Z,62.20
2022-08-26T00:14:31.728Z,62.20
2022-08-26T00:17:34.214Z,62.30
2022-08-26T00:20:36.412Z,62.20
2022-08-26T00:23:38.383Z,62.20
2022-08-26T00:26:41.462Z,62.90
2022-08-26T00:29:43.616Z,62.80
2022-08-26T00:32:46.473Z,62.70
2022-08-26T00:35:48.931Z,62.70
2022-08-26T00:38:53.937Z,62.20
2022-08-26T00:41:56.069Z,62.10
2022-08-26T00:44:58.660Z,62.80
2022-08-26T00:48:05.900Z,62.90
2022-08-26T00:51:18.738Z,63.10
2022-08-26T00:54:24.471Z,62.40
2022-08-26T00:57:29.771Z,62.30
2022-08-26T01:00:32.661Z,62.70
2022-08-26T01:03:35.983Z,62.40
2022-08-26T01:06:38.228Z,63.00
2022-08-26T01:09:40.248Z,63.00
2022-08-26T01:12:50.229Z,63.60
2022-08-26T01:15:56.428Z,63.80
2022-08-26T01:19:03.543Z,64.00
2022-08-26T01:22:20.178Z,62.80
2022-08-26T01:25:25.838Z,63.30
2022-08-26T01:28:31.024Z,63.10
2022-08-26T01:31:38.466Z,63.30
2022-08-26T01:34:41.175Z,63.70
2022-08-26T01:37:43.092Z,63.20
2022-08-26T01:40:46.033Z,63.30
2022-08-26T01:43:53.267Z,63.10
2022-08-26T01:46:57.356Z,62.80
2022-08-26T01:50:05.104Z,64.10
2022-08-26T01:53:11.452Z,63.70
2022-08-26T01:56:14.776Z,61.50
2022-08-26T01:59:18.411Z,62.90
2022-08-26T02:02:21.441Z,62.50
2022-08-26T02:05:24.473Z,62.80
2022-08-26T02:08:56.720Z,62.80
2022-08-26T02:12:01.646Z,62.80
2022-08-26T02:15:07.437Z,63.10
2022-08-26T02:18:14.004Z,63.30
2022-08-26T02:21:17.107Z,63.30
2022-08-26T02:24:28.475Z,63.50
2022-08-26T02:27:33.664Z,63.90
2022-08-26T02:30:35.950Z,65.10
2022-08-26T02:33:38.216Z,63.50
2022-08-26T02:36:45.151Z,63.40
2022-08-26T02:39:47.122Z,63.30
2022-08-26T02:42:50.377Z,63.30
2022-08-26T02:45:55.184Z,62.70
2022-08-26T02:48:58.332Z,63.40
2022-08-26T02:52:01.993Z,62.90
2022-08-26T02:55:05.304Z,63.30
2022-08-26T02:58:07.396Z,63.30
2022-08-26T03:01:20.935Z,63.00
2022-08-26T03:04:25.771Z,63.10
2022-08-26T03:07:29.802Z,62.80
2022-08-26T03:10:32.223Z,63.20
2022-08-26T03:13:36.291Z,63.60
2022-08-26T03:16:38.267Z,63.10
2022-08-26T03:19:40.217Z,63.60
2022-08-26T03:22:43.331Z,63.20
2022-08-26T03:25:52.490Z,62.40
2022-08-26T03:29:12.997Z,63.30
2022-08-26T03:32:16.925Z,63.20
2022-08-26T03:35:18.955Z,63.70
2022-08-26T03:38:27.126Z,63.70
2022-08-26T03:41:29.097Z,63.70
2022-08-26T03:44:31.625Z,63.50
2022-08-26T03:47:34.694Z,63.30
2022-08-26T03:50:40.523Z,62.90
2022-08-26T03:53:42.887Z,63.70
2022-08-26T03:56:46.596Z,63.00
2022-08-26T03:59:48.982Z,63.60
2022-08-26T04:02:53.438Z,63.50
2022-08-26T04:05:55.476Z,63.50
2022-08-26T04:09:00.256Z,63.70
2022-08-26T04:12:03.639Z,63.80
2022-08-26T04:15:10.835Z,64.30
2022-08-26T04:18:12.796Z,64.60
2022-08-26T04:21:15.399Z,63.90
2022-08-26T04:24:17.563Z,64.20
2022-08-26T04:27:19.722Z,63.80
2022-08-26T04:30:21.982Z,64.50
2022-08-26T04:33:32.435Z,64.20
2022-08-26T04:36:35.402Z,64.10
2022-08-26T04:39:38.256Z,64.30
2022-08-26T04:42:40.173Z,63.90
2022-08-26T04:45:43.699Z,64.10
2022-08-26T04:48:45.919Z,63.90
2022-08-26T04:51:48.954Z,64.00
2022-08-26T04:54:51.130Z,63.80
2022-08-26T04:57:53.696Z,63.90
2022-08-26T05:00:56.723Z,63.50
2022-08-26T05:03:59.056Z,64.00
2022-08-26T05:07:03.031Z,63.80
2022-08-26T05:10:08.827Z,63.70
2022-08-26T05:13:15.179Z,63.80
2022-08-26T05:16:17.798Z,63.10
2022-08-26T05:19:19.800Z,63.40
2022-08-26T05:22:23.067Z,63.30
2022-08-26T05:25:25.136Z,63.20
2022-08-26T05:28:30.339Z,63.40
2022-08-26T05:31:34.181Z,61.80
2022-08-26T05:34:37.558Z,61.60
2022-08-26T05:37:40.231Z,60.70
2022-08-26T05:40:46.042Z,60.30
2022-08-26T05:43:48.229Z,59.60
2022-08-26T05:46:51.938Z,59.70
2022-08-26T05:49:54.840Z,59.80
2022-08-26T05:52:57.947Z,59.90
2022-08-26T05:56:02.555Z,60.40
2022-08-26T05:59:04.559Z,59.90
2022-08-26T06:02:07.477Z,60.00
2022-08-26T06:05:09.788Z,59.70
2022-08-26T06:08:13.560Z,60.70
2022-08-26T06:11:18.854Z,60.40
2022-08-26T06:14:20.828Z,59.20
2022-08-26T06:17:22.742Z,59.90
2022-08-26T06:20:25.400Z,59.90
2022-08-26T06:23:48.038Z,58.80
2022-08-26T06:26:54.059Z,58.20
2022-08-26T06:29:56.066Z,58.70
2022-08-26T06:32:58.000Z,59.00
2022-08-26T06:36:01.216Z,57.60
2022-08-26T06:39:07.467Z,57.50
2022-08-26T06:42:10.905Z,58.60
2022-08-26T06:45:13.900Z,58.20
2022-08-26T06:48:18.729Z,58.60
2022-08-26T06:51:29.711Z,58.60
2022-08-26T06:54:32.175Z,58.30
2022-08-26T06:57:37.776Z,58.40
2022-08-26T07:00:47.317Z,59.10
2022-08-26T07:03:51.591Z,59.80
2022-08-26T07:06:56.487Z,59.80
2022-08-26T07:09:58.456Z,59.80
2022-08-26T07:13:00.913Z,59.50
2022-08-26T07:16:07.492Z,59.80
2022-08-26T07:19:11.705Z,59.30
2022-08-26T07:22:13.682Z,58.70
2022-08-26T07:25:16.060Z,59.50
2022-08-26T07:28:18.009Z,59.70
2022-08-26T07:31:22.688Z,59.10
2022-08-26T07:34:25.093Z,58.70
2022-08-26T07:37:28.469Z,59.40
2022-08-26T07:40:39.374Z,58.20
2022-08-26T07:43:41.829Z,58.80
2022-08-26T07:46:44.264Z,58.00
2022-08-26T07:49:56.754Z,57.50
2022-08-26T07:52:58.786Z,58.10
2022-08-26T07:56:00.730Z,56.90
2022-08-26T07:59:02.629Z,58.10
2022-08-26T08:02:10.622Z,58.20
2022-08-26T08:05:16.825Z,58.50
2022-08-26T08:08:27.550Z,58.50
2022-08-26T08:11:31.253Z,57.90
2022-08-26T08:14:34.672Z,58.40
2022-08-26T08:17:36.643Z,57.70
2022-08-26T08:20:38.594Z,58.30
2022-08-26T08:23:46.646Z,58.90
2022-08-26T08:26:49.533Z,59.00
2022-08-26T08:29:57.284Z,60.10
2022-08-26T08:32:59.403Z,59.00
2022-08-26T08:36:01.866Z,59.00
2022-08-26T08:39:04.257Z,58.10
2022-08-26T08:42:20.424Z,56.20
2022-08-26T08:45:37.690Z,55.50
2022-08-26T08:49:04.172Z,55.50
2022-08-26T08:52:20.676Z,54.90
2022-08-26T08:55:23.790Z,54.10
2022-08-26T08:58:36.950Z,53.60
2022-08-26T09:01:44.661Z,53.10
2022-08-26T09:05:20.610Z,54.40
2022-08-26T09:08:29.605Z,52.70
2022-08-26T09:11:31.904Z,53.10
2022-08-26T09:14:34.148Z,53.90
2022-08-26T09:18:08.037Z,53.20
2022-08-26T09:21:17.935Z,53.50
2022-08-26T09:24:20.116Z,55.00
2022-08-26T09:27:42.826Z,53.50
2022-08-26T09:30:47.267Z,53.80
2022-08-26T09:33:49.977Z,54.40
2022-08-26T09:36:58.459Z,52.60
2022-08-26T09:40:34.533Z,53.90
2022-08-26T09:43:37.591Z,53.10
2022-08-26T09:47:04.154Z,52.70
2022-08-26T09:50:12.452Z,52.20
2022-08-26T09:53:25.188Z,53.50
2022-08-26T09:56:37.131Z,53.10
2022-08-26T09:59:39.049Z,53.00
2022-08-26T10:02:47.688Z,53.40
2022-08-26T10:05:59.093Z,53.50
2022-08-26T10:09:08.864Z,54.30
2022-08-26T10:12:17.403Z,54.10
2022-08-26T10:15:21.210Z,53.20
2022-08-26T10:18:39.892Z,51.80
2022-08-26T10:22:05.680Z,51.60
2022-08-26T10:25:14.330Z,51.80
2022-08-26T10:28:37.295Z,52.10
2022-08-26T10:31:46.807Z,49.70
2022-08-26T10:34:49.870Z,48.30
2022-08-26T10:38:00.523Z,49.80
2022-08-26T10:41:16.977Z,49.80
2022-08-26T10:44:21.770Z,49.50
2022-08-26T10:47:38.190Z,48.60
2022-08-26T10:50:44.368Z,49.80
2022-08-26T10:54:12.682Z,50.00
2022-08-26T10:57:50.831Z,49.40
2022-08-26T11:40:25.105Z,50.00
2022-08-26T11:43:30.255Z,50.20
2022-08-26T11:46:37.379Z,50.00
2022-08-26T11:49:39.702Z,50.00
2022-08-26T11:53:07.843Z,50.10
2022-08-26T11:56:24.566Z,49.90
2022-08-26T12:02:44.504Z,50.40
2022-08-26T12:05:50.023Z,50.00
2022-08-26T12:08:55.684Z,51.00
2022-08-26T12:12:14.915Z,51.40
2022-08-26T12:15:22.188Z,50.40
2022-08-26T12:18:30.787Z,51.90
2022-08-26T12:21:34.898Z,50.60
2022-08-26T12:24:47.766Z,51.00
2022-08-26T12:27:53.795Z,50.80
2022-08-26T12:31:04.980Z,50.40
2022-08-26T12:34:17.678Z,51.30
2022-08-26T12:37:19.879Z,51.30
2022-08-26T12:40:31.220Z,51.70
2022-08-26T12:43:42.236Z,51.30
2022-08-26T12:46:49.190Z,51.60
2022-08-26T12:50:09.997Z,51.70
2022-08-26T12:53:11.988Z,54.10
2022-08-26T12:56:40.836Z,51.60
2022-08-26T12:59:42.788Z,51.70
2022-08-26T13:02:44.763Z,53.20
2022-08-26T13:05:46.762Z,53.10
2022-08-26T13:08:51.934Z,53.30
2022-08-26T13:11:53.981Z,53.10
2022-08-26T13:14:57.675Z,52.80
2022-08-26T13:17:59.603Z,53.90
2022-08-26T13:21:07.832Z,54.20
2022-08-26T13:24:12.511Z,53.90
2022-08-26T13:27:15.456Z,54.60
2022-08-26T13:30:17.441Z,53.60
2022-08-26T13:33:21.693Z,53.10
2022-08-26T13:36:23.888Z,53.10
2022-08-26T13:39:27.045Z,53.20
2022-08-26T13:42:29.453Z,53.80
2022-08-26T13:45:31.768Z,53.80
2022-08-26T13:48:35.176Z,54.10
2022-08-26T13:51:39.368Z,53.80
2022-08-26T13:54:41.388Z,54.60
2022-08-26T13:57:43.360Z,55.00
2022-08-26T14:00:45.334Z,54.20
2022-08-26T14:03:49.336Z,55.60
2022-08-26T14:06:51.591Z,55.00
2022-08-26T14:09:53.550Z,55.50
2022-08-26T14:12:55.912Z,55.00
2022-08-26T14:15:59.773Z,55.40
2022-08-26T14:19:04.619Z,56.20
2022-08-26T14:22:06.676Z,55.70
2022-08-26T14:25:09.635Z,55.40
2022-08-26T14:28:14.146Z,54.90
2022-08-26T14:31:17.072Z,55.60
2022-08-26T14:34:18.951Z,55.50
2022-08-26T14:37:21.267Z,55.10
2022-08-26T14:40:26.086Z,55.30
2022-08-26T14:43:28.027Z,55.20
2022-08-26T14:46:32.632Z,55.40
2022-08-26T14:49:34.623Z,56.00
2022-08-26T14:52:56.534Z,56.10
2022-08-26T14:55:58.488Z,55.90
2022-08-26T14:59:01.012Z,56.10
2022-08-26T15:02:04.111Z,56.30
2022-08-26T15:05:08.588Z,55.80
2022-08-26T15:08:10.854Z,55.70
2022-08-26T15:11:13.012Z,55.60
2022-08-26T15:14:19.232Z,55.30
2022-08-26T15:17:21.738Z,54.20
2022-08-26T15:20:23.787Z,53.90
2022-08-26T15:23:25.822Z,52.70
2022-08-26T15:26:29.892Z,53.00
2022-08-26T15:29:31.957Z,53.20
2022-08-26T15:32:38.274Z,53.10
2022-08-26T15:35:40.329Z,52.90
2022-08-26T15:38:44.895Z,52.60
2022-08-26T15:41:47.717Z,53.10
2022-08-26T15:44:49.985Z,53.90
2022-08-26T15:48:00.679Z,54.00
2022-08-26T15:51:03.446Z,53.70
2022-08-26T15:54:06.613Z,54.30
2022-08-26T15:57:14.396Z,54.10
2022-08-26T16:00:17.629Z,54.00
2022-08-26T16:03:20.125Z,54.20
2022-08-26T16:06:27.536Z,54.50
2022-08-26T16:09:30.813Z,54.60
2022-08-26T16:12:32.778Z,54.50
2022-08-26T16:15:35.646Z,55.00
2022-08-26T16:18:37.755Z,55.20
2022-08-26T16:21:41.049Z,55.40
2022-08-26T16:24:43.078Z,55.70
2022-08-26T16:27:44.990Z,56.00
2022-08-26T16:30:47.148Z,56.30
2022-08-26T16:33:49.158Z,56.20
2022-08-26T16:36:51.214Z,56.50
2022-08-26T16:39:53.192Z,56.70
2022-08-26T16:42:55.418Z,56.80
2022-08-26T16:45:57.539Z,57.10
2022-08-26T16:49:00.022Z,57.50
2022-08-26T16:52:02.082Z,57.60
2022-08-26T16:55:09.489Z,58.00
2022-08-26T16:58:11.559Z,58.40
2022-08-26T17:01:13.646Z,58.30
2022-08-26T17:04:16.097Z,58.60
2022-08-26T17:07:18.143Z,58.60
2022-08-26T17:10:21.455Z,58.80
2022-08-26T17:13:34.931Z,59.10
2022-08-26T17:16:38.147Z,59.00
2022-08-26T17:19:46.930Z,59.10
2022-08-26T17:22:50.881Z,59.10
2022-08-26T17:25:52.949Z,59.20
2022-08-26T17:28:55.132Z,59.60
2022-08-26T17:31:57.210Z,60.00
2022-08-26T17:34:59.408Z,60.40
2022-08-26T17:38:02.495Z,60.20
2022-08-26T17:41:08.930Z,60.80
2022-08-26T17:44:11.307Z,60.70
2022-08-26T17:47:13.209Z,61.20
2022-08-26T17:50:18.312Z,61.70
2022-08-26T17:53:21.664Z,61.70
2022-08-26T17:56:27.100Z,62.00
2022-08-26T17:59:30.579Z,62.40
2022-08-26T18:02:32.790Z,62.40
2022-08-26T18:05:34.695Z,62.50
2022-08-26T18:08:37.459Z,62.50
2022-08-26T18:11:40.625Z,62.40
2022-08-26T18:14:42.436Z,63.10
2022-08-26T18:17:45.103Z,63.00
2022-08-26T18:20:47.147Z,63.90
2022-08-26T18:23:56.940Z,63.30
2022-08-26T18:26:58.947Z,62.90
2022-08-26T18:30:01.540Z,63.20
2022-08-26T18:33:03.717Z,64.00
2022-08-26T18:36:05.817Z,63.30
2022-08-26T18:39:09.033Z,63.40
2022-08-26T18:42:10.977Z,63.80
2022-08-26T18:45:16.038Z,64.00
2022-08-26T18:48:18.201Z,64.40
2022-08-26T18:51:23.565Z,64.20
2022-08-26T18:54:26.009Z,64.50
2022-08-26T18:57:27.950Z,64.40
2022-08-26T19:00:31.567Z,64.70
2022-08-26T19:03:33.676Z,64.40
2022-08-26T19:06:36.312Z,64.30
2022-08-26T19:09:38.240Z,64.60
2022-08-26T19:12:40.165Z,64.60
2022-08-26T19:15:44.533Z,64.10
2022-08-26T19:18:47.177Z,64.70
2022-08-26T19:21:49.201Z,64.90
2022-08-26T19:24:51.140Z,64.90
2022-08-26T19:27:53.102Z,64.60
2022-08-26T19:30:55.243Z,64.00
2022-08-26T19:33:58.117Z,64.00
2022-08-26T19:37:00.103Z,63.60
2022-08-26T19:40:02.317Z,64.90
2022-08-26T19:43:05.006Z,64.10
2022-08-26T19:46:17.633Z,64.50
2022-08-26T19:49:20.183Z,64.90
2022-08-26T19:52:24.166Z,64.90
2022-08-26T19:55:33.353Z,65.40
2022-08-26T19:58:35.467Z,65.40
2022-08-26T20:01:37.385Z,65.60
2022-08-26T20:04:40.124Z,66.60
2022-08-26T20:07:42.140Z,67.20
2022-08-26T20:10:44.527Z,67.40
2022-08-26T20:13:47.451Z,67.20
2022-08-26T20:16:49.923Z,66.60
2022-08-26T20:20:16.068Z,66.90
2022-08-26T20:23:32.321Z,66.10
2022-08-26T20:26:36.422Z,66.60
2022-08-26T20:29:39.316Z,66.20
2022-08-26T20:32:42.303Z,66.60
2022-08-26T20:35:44.490Z,67.30
2022-08-26T20:38:47.285Z,68.30
2022-08-26T20:41:49.745Z,68.50
2022-08-26T20:44:54.735Z,69.60
2022-08-26T20:47:57.114Z,70.10
2022-08-26T20:51:00.110Z,70.90
2022-08-26T20:54:02.814Z,70.90
2022-08-26T20:57:05.042Z,72.00
2022-08-26T21:00:07.918Z,72.90
2022-08-26T21:03:09.861Z,72.10
2022-08-26T21:06:13.465Z,72.00
2022-08-26T21:09:16.551Z,71.50
2022-08-26T21:12:18.793Z,70.90
2022-08-26T21:15:21.184Z,71.20
2022-08-26T21:18:23.624Z,70.70
2022-08-26T21:21:27.556Z,70.30
2022-08-26T21:24:29.854Z,70.20
2022-08-26T21:27:31.821Z,70.00
2022-08-26T21:30:37.896Z,69.90
2022-08-26T21:33:40.499Z,70.50
2022-08-26T21:36:42.604Z,70.00
2022-08-26T21:39:44.796Z,70.00
2022-08-26T21:42:46.852Z,70.20
2022-08-26T21:45:49.933Z,71.10
2022-08-26T21:48:56.839Z,71.50
2022-08-26T21:51:58.779Z,71.20
2022-08-26T21:55:02.493Z,71.10
2022-08-26T21:58:04.550Z,71.80
2022-08-26T22:01:11.877Z,72.10
2022-08-26T22:04:14.183Z,71.50
2022-08-26T22:07:17.505Z,72.00
2022-08-26T22:10:19.776Z,72.00
2022-08-26T22:13:29.580Z,72.40
2022-08-26T22:16:31.681Z,73.70
2022-08-26T22:19:45.750Z,73.60
2022-08-26T22:22:48.819Z,74.40
2022-08-26T22:25:51.524Z,74.60
2022-08-26T22:28:59.169Z,74.40
2022-08-26T22:32:01.948Z,73.90
2022-08-26T22:35:16.677Z,73.00
2022-08-26T22:38:27.014Z,73.20
2022-08-26T22:41:29.026Z,73.00
2022-08-26T22:44:37.101Z,72.50
2022-08-26T22:47:40.027Z,72.30
2022-08-26T22:50:43.393Z,73.40
2022-08-26T22:53:45.857Z,73.60
2022-08-26T22:56:48.054Z,72.80
2022-08-26T22:59:50.263Z,73.70
2022-08-26T23:02:52.217Z,74.30
2022-08-26T23:05:55.644Z,74.10
2022-08-26T23:08:58.848Z,74.40
2022-08-26T23:12:00.722Z,73.00
2022-08-26T23:15:02.855Z,73.60
2022-08-26T23:18:05.115Z,73.40
2022-08-26T23:21:07.300Z,71.90
2022-08-26T23:24:10.083Z,72.80
2022-08-26T23:27:12.170Z,73.30
2022-08-26T23:30:19.777Z,74.30
2022-08-26T23:33:21.886Z,74.30
2022-08-26T23:36:23.837Z,74.10
2022-08-26T23:39:25.903Z,73.90
2022-08-26T23:42:28.986Z,73.30
2022-08-26T23:45:32.399Z,74.50
2022-08-26T23:48:34.421Z,74.50
2022-08-26T23:51:56.020Z,73.40
2022-08-26T23:54:58.141Z,73.20
2022-08-26T23:58:00.123Z,72.10
